Terminal Aerodrome Forecast
Issued by NWS Quad Cities IA IL

Home | Current Version | Previous Version | Text Only | Print | Product List | Glossary On
Versions: 1 2 3 4 5 6 7 8 9 10 11 12 13 14 15 16 17
000
FTUS43 KDVN 142000 AAA
TAFDBQ
TAF AMD
KDBQ 142025Z 1420/1518 20009KT P6SM FEW070 SCT120
     FM150500 17003KT P6SM BKN070 OVC120
     FM151200 10004KT P6SM VCSH OVC040
     FM151400 05006KT 4SM -RA BR BKN025 OVC050=

USA.gov is the U.S. government's official web portal to all federal, state and local government web resources and services.